Time;durP1;ratioP1;P1;durP2;ratioP2;P2;SDS_P1;SDS_P2;PMS_P1;PMS_P2;Temp;Humidity;BMP_temperature;BMP_pressure;BME280_temperature;BME280_humidity;BME280_pressure;Samples;Min_cycle;Max_cycle;Signal;HPM_P1;HPM_P2
2020/12/02 00:01:22;;;;;;;7.60;2.47;;;8.00;86.40;;;;;;5033573;28;20056;-69
2020/12/02 00:04:09;;;;;;;9.02;2.60;;;7.90;86.80;;;;;;5033799;28;20061;-69
2020/12/02 00:06:37;;;;;;;13.90;2.90;;;7.70;86.80;;;;;;5033186;28;20489;-69
2020/12/02 00:09:14;;;;;;;9.18;2.38;;;8.00;86.40;;;;;;5033003;28;20055;-69
2020/12/02 00:11:41;;;;;;;5.88;2.30;;;8.10;87.10;;;;;;5032812;28;20524;-69
2020/12/02 00:14:11;;;;;;;6.28;1.98;;;7.80;86.30;;;;;;5033562;28;20038;-69
2020/12/02 00:16:37;;;;;;;7.80;2.30;;;8.10;87.00;;;;;;5033012;28;20088;-69
2020/12/02 00:19:04;;;;;;;9.07;1.75;;;7.90;86.70;;;;;;5033258;28;20038;-69
2020/12/02 00:21:32;;;;;;;8.82;2.30;;;7.70;87.10;;;;;;5033487;28;20131;-69
2020/12/02 00:23:59;;;;;;;6.93;1.70;;;7.70;87.10;;;;;;5033071;28;20393;-69
2020/12/02 00:26:25;;;;;;;8.82;2.00;;;8.20;87.20;;;;;;5033240;28;20041;-69
2020/12/02 00:28:52;;;;;;;8.35;2.30;;;8.30;87.60;;;;;;5033083;28;20034;-69
2020/12/02 00:31:19;;;;;;;9.07;2.10;;;8.00;86.90;;;;;;5032996;28;20056;-69
2020/12/02 00:33:45;;;;;;;8.90;2.88;;;7.70;86.80;;;;;;5032889;28;20041;-69
2020/12/02 00:36:11;;;;;;;8.45;2.17;;;8.30;86.70;;;;;;5033132;28;20041;-69
2020/12/02 00:38:37;;;;;;;7.55;2.15;;;7.90;86.70;;;;;;5033291;28;20519;-69
2020/12/02 00:41:03;;;;;;;7.85;2.28;;;7.80;86.80;;;;;;5033061;28;20400;-69
2020/12/02 00:43:30;;;;;;;7.75;1.70;;;7.60;86.60;;;;;;5033206;28;20120;-69
2020/12/02 00:45:59;;;;;;;5.80;1.55;;;7.80;86.70;;;;;;5033084;28;20034;-69
2020/12/02 00:48:26;;;;;;;6.60;1.70;;;7.90;86.60;;;;;;5035809;28;20528;-69
2020/12/02 00:50:53;;;;;;;8.55;1.77;;;8.00;86.70;;;;;;5036665;28;20500;-69
2020/12/02 00:53:32;;;;;;;7.75;1.60;;;8.20;87.10;;;;;;5036630;28;20083;-69
2020/12/02 00:55:58;;;;;;;5.93;1.60;;;7.90;86.20;;;;;;5037163;28;20052;-69
2020/12/02 00:59:05;;;;;;;7.75;1.90;;;8.00;87.10;;;;;;5036370;28;20524;-69
2020/12/02 01:01:49;;;;;;;5.13;1.63;;;8.00;86.90;;;;;;5035576;28;20493;-69
2020/12/02 01:04:18;;;;;;;3.20;1.08;;;8.10;87.90;;;;;;5036874;28;20033;-69
2020/12/02 01:06:47;;;;;;;6.38;1.30;;;8.00;87.30;;;;;;5036683;28;20072;-69
2020/12/02 01:09:15;;;;;;;5.57;1.27;;;8.20;87.30;;;;;;5036989;28;20061;-69
2020/12/02 01:11:42;;;;;;;6.75;1.58;;;8.30;87.40;;;;;;5036888;28;20041;-69
2020/12/02 01:14:11;;;;;;;5.68;1.10;;;8.20;87.50;;;;;;5036902;28;20042;-69
2020/12/02 01:16:41;;;;;;;6.18;1.40;;;8.30;87.40;;;;;;5036721;28;20037;-69
2020/12/02 01:19:10;;;;;;;7.57;1.30;;;7.80;87.40;;;;;;5036988;28;20045;-69
2020/12/02 01:21:43;;;;;;;7.22;1.40;;;8.40;87.60;;;;;;5036684;28;20042;-69
2020/12/02 01:24:14;;;;;;;8.52;1.90;;;7.80;87.30;;;;;;5036544;28;20041;-69
2020/12/02 01:26:48;;;;;;;6.25;1.42;;;8.40;87.60;;;;;;5036714;28;20044;-69
2020/12/02 01:29:17;;;;;;;5.30;1.40;;;7.80;87.40;;;;;;5036483;28;20033;-69
2020/12/02 01:31:51;;;;;;;6.63;1.50;;;7.70;87.20;;;;;;5036068;28;20034;-69
2020/12/02 01:34:17;;;;;;;7.53;1.40;;;8.10;87.50;;;;;;5035975;28;20251;-69
2020/12/02 01:37:05;;;;;;;7.70;1.50;;;8.00;86.90;;;;;;5036173;28;20492;-69
2020/12/02 01:39:36;;;;;;;4.85;1.25;;;8.00;86.80;;;;;;5036338;28;20107;-69
2020/12/02 01:42:04;;;;;;;6.43;1.40;;;8.00;87.10;;;;;;5036172;28;20128;-69
2020/12/02 01:44:30;;;;;;;5.25;1.02;;;8.10;87.10;;;;;;5036230;28;20041;-69
2020/12/02 01:47:41;;;;;;;5.93;1.13;;;7.90;86.80;;;;;;5036159;28;20074;-69
2020/12/02 01:50:29;;;;;;;7.13;2.08;;;8.30;87.00;;;;;;4989077;28;20069;-69
2020/12/02 01:53:05;;;;;;;5.32;1.80;;;7.70;86.40;;;;;;5035691;28;20045;-69
2020/12/02 01:55:50;;;;;;;7.95;2.00;;;7.90;87.50;;;;;;5035855;28;20033;-69
2020/12/02 01:58:38;;;;;;;8.32;2.53;;;7.80;86.60;;;;;;5035730;28;20469;-69
2020/12/02 02:01:12;;;;;;;8.70;1.77;;;7.70;87.30;;;;;;5028016;28;20438;-69
2020/12/02 02:03:39;;;;;;;6.13;1.92;;;7.50;87.30;;;;;;5035791;28;20045;-69
2020/12/02 02:06:16;;;;;;;5.88;1.45;;;7.70;87.10;;;;;;5035866;28;20039;-69
2020/12/02 02:08:42;;;;;;;4.30;1.92;;;7.50;87.80;;;;;;5035485;28;20081;-69
2020/12/02 02:11:17;;;;;;;7.40;2.40;;;7.50;87.20;;;;;;5035499;28;20048;-69
2020/12/02 02:14:21;;;;;;;6.40;2.10;;;7.50;86.40;;;;;;5035289;28;20056;-69
2020/12/02 02:16:48;;;;;;;8.85;2.38;;;7.90;87.10;;;;;;5035308;28;20107;-69
2020/12/02 02:19:21;;;;;;;9.68;2.70;;;7.70;87.20;;;;;;5034581;28;20067;-69
2020/12/02 02:21:51;;;;;;;6.22;2.55;;;7.30;87.50;;;;;;5034952;28;20037;-69
2020/12/02 02:24:17;;;;;;;8.15;2.90;;;7.70;87.60;;;;;;5034382;28;20041;-69
2020/12/02 02:26:50;;;;;;;8.45;2.70;;;7.90;87.50;;;;;;5034734;28;20102;-69
2020/12/02 02:29:23;;;;;;;7.13;2.40;;;7.50;87.90;;;;;;5034208;28;20172;-69
2020/12/02 02:32:01;;;;;;;7.07;2.45;;;7.20;86.60;;;;;;5034320;28;20065;-69
2020/12/02 02:34:29;;;;;;;8.45;2.63;;;7.50;88.00;;;;;;5033742;28;20405;-69
2020/12/02 02:36:56;;;;;;;7.40;2.63;;;7.60;87.60;;;;;;5034320;28;20056;-69
2020/12/02 02:39:22;;;;;;;5.40;2.60;;;7.30;87.30;;;;;;5034307;28;20124;-69
2020/12/02 02:41:54;;;;;;;6.78;2.35;;;7.60;87.40;;;;;;5033699;28;20491;-69
2020/12/02 02:44:20;;;;;;;5.85;2.42;;;6.90;87.20;;;;;;5034062;28;20506;-69
2020/12/02 02:46:49;;;;;;;6.05;2.30;;;7.40;87.40;;;;;;5033430;28;20044;-69
2020/12/02 02:49:15;;;;;;;6.28;2.53;;;7.40;87.80;;;;;;5033764;28;20092;-69
2020/12/02 02:51:41;;;;;;;7.53;2.60;;;7.60;88.30;;;;;;5033673;28;20075;-69
2020/12/02 02:54:08;;;;;;;7.90;2.85;;;7.80;88.30;;;;;;5033471;28;20140;-70
2020/12/02 02:56:34;;;;;;;7.05;2.38;;;7.40;88.20;;;;;;5033532;28;20041;-69
2020/12/02 02:59:00;;;;;;;8.45;2.72;;;7.20;87.70;;;;;;5033454;28;20480;-69
2020/12/02 03:01:26;;;;;;;7.25;2.85;;;7.00;87.50;;;;;;5033509;28;20049;-69
2020/12/02 03:03:52;;;;;;;7.10;2.85;;;7.20;87.70;;;;;;5033502;28;20033;-69
2020/12/02 03:06:18;;;;;;;9.50;2.72;;;7.30;87.50;;;;;;5033204;28;20480;-69
2020/12/02 03:08:44;;;;;;;6.93;2.67;;;7.60;87.90;;;;;;5033402;28;20045;-69
2020/12/02 03:11:14;;;;;;;8.68;2.60;;;7.20;87.70;;;;;;5032728;28;20038;-69
2020/12/02 03:13:49;;;;;;;8.93;2.80;;;7.10;87.90;;;;;;5015950;28;20404;-69
2020/12/02 03:16:27;;;;;;;;;;;7.50;88.30;;;;;;5034220;28;20044;-69
2020/12/02 03:19:00;;;;;;;7.85;2.08;;;7.40;89.10;;;;;;5033695;28;19936;-69
2020/12/02 03:21:26;;;;;;;4.20;2.30;;;7.10;88.40;;;;;;5033699;28;20128;-69
2020/12/02 03:23:52;;;;;;;6.22;2.10;;;7.40;87.80;;;;;;5033670;28;20056;-69
2020/12/02 03:26:19;;;;;;;8.25;2.60;;;7.60;87.80;;;;;;5033781;28;20101;-69
2020/12/02 03:28:46;;;;;;;7.35;2.28;;;7.60;88.00;;;;;;5033377;28;20541;-69
2020/12/02 03:31:17;;;;;;;6.65;2.40;;;7.70;87.90;;;;;;5033617;28;20037;-69
2020/12/02 03:33:42;;;;;;;5.95;2.17;;;7.50;88.20;;;;;;5033615;28;20046;-69
2020/12/02 03:36:12;;;;;;;8.43;2.25;;;7.80;87.90;;;;;;5033784;28;20099;-69
2020/12/02 03:38:39;;;;;;;7.97;2.10;;;7.70;88.20;;;;;;5033401;28;20120;-69
2020/12/02 03:41:05;;;;;;;10.43;2.45;;;7.40;87.80;;;;;;5033610;28;20068;-70
2020/12/02 03:43:31;;;;;;;5.47;2.00;;;7.70;88.10;;;;;;5033091;28;20056;-69
2020/12/02 03:45:57;;;;;;;6.47;2.47;;;7.80;88.10;;;;;;5033356;28;20049;-69
2020/12/02 03:48:23;;;;;;;7.03;2.72;;;7.50;88.10;;;;;;5033761;28;20492;-69
2020/12/02 03:50:49;;;;;;;9.10;3.22;;;7.30;87.80;;;;;;5033275;28;20045;-69
2020/12/02 03:53:16;;;;;;;11.25;3.03;;;7.60;87.90;;;;;;5033590;28;20473;-69
2020/12/02 03:55:43;;;;;;;8.02;2.85;;;7.50;87.90;;;;;;5033574;28;20112;-69
2020/12/02 03:58:09;;;;;;;11.40;3.72;;;7.80;88.20;;;;;;5033230;28;20484;-69
2020/12/02 04:00:34;;;;;;;9.55;3.20;;;7.90;88.20;;;;;;5033231;28;20041;-69
2020/12/02 04:03:00;;;;;;;7.57;2.97;;;7.50;88.20;;;;;;5033435;28;20037;-69
2020/12/02 04:05:27;;;;;;;8.95;3.15;;;7.50;88.30;;;;;;5033626;28;20037;-69
2020/12/02 04:07:53;;;;;;;9.82;3.40;;;7.40;88.10;;;;;;5033089;28;20216;-69
2020/12/02 04:10:19;;;;;;;5.38;3.00;;;6.90;88.40;;;;;;5033288;28;20037;-69
2020/12/02 04:12:45;;;;;;;7.60;3.30;;;7.40;88.20;;;;;;5033167;28;20126;-69
2020/12/02 04:15:15;;;;;;;8.20;2.90;;;7.30;87.90;;;;;;5033523;28;20501;-69
2020/12/02 04:17:42;;;;;;;6.00;3.38;;;7.40;87.40;;;;;;5033319;28;20037;-69
2020/12/02 04:20:08;;;;;;;11.38;3.50;;;7.30;88.20;;;;;;5033022;28;20045;-69
2020/12/02 04:22:34;;;;;;;8.35;3.22;;;7.10;88.30;;;;;;5034575;28;20065;-69
2020/12/02 04:25:01;;;;;;;11.18;3.90;;;7.30;88.10;;;;;;5037112;28;20467;-69
2020/12/02 04:27:27;;;;;;;10.55;3.85;;;7.40;88.30;;;;;;5036934;28;20045;-69
2020/12/02 04:29:52;;;;;;;9.20;3.90;;;7.30;88.10;;;;;;5036723;28;20067;-69
2020/12/02 04:32:18;;;;;;;11.05;4.57;;;7.40;88.20;;;;;;5037007;28;20508;-69
2020/12/02 04:34:44;;;;;;;13.13;4.88;;;7.70;88.40;;;;;;5037107;28;20095;-69
2020/12/02 04:37:10;;;;;;;10.43;4.45;;;7.40;88.50;;;;;;5037047;28;20119;-69
2020/12/02 04:39:36;;;;;;;11.75;5.00;;;7.40;87.70;;;;;;5036977;28;20040;-69
2020/12/02 04:42:04;;;;;;;12.07;4.47;;;7.10;87.60;;;;;;5037074;28;20046;-69
2020/12/02 04:44:31;;;;;;;10.05;4.85;;;7.00;87.80;;;;;;5037092;28;20554;-69
2020/12/02 04:46:57;;;;;;;10.30;4.88;;;6.80;87.10;;;;;;5036829;28;20132;-69
2020/12/02 04:49:28;;;;;;;13.45;5.03;;;7.70;87.90;;;;;;5037047;28;20619;-69
2020/12/02 04:52:02;;;;;;;12.68;5.28;;;7.70;88.10;;;;;;5036962;28;20493;-69
2020/12/02 04:54:28;;;;;;;10.10;3.63;;;7.10;88.30;;;;;;5037055;28;20041;-69
2020/12/02 04:56:54;;;;;;;13.02;4.63;;;7.30;87.90;;;;;;5036521;28;20038;-69
2020/12/02 04:59:32;;;;;;;9.27;3.78;;;7.30;87.90;;;;;;5036367;28;20071;-69
2020/12/02 05:01:58;;;;;;;11.07;3.95;;;7.70;88.40;;;;;;5036689;28;20553;-69
2020/12/02 05:04:26;;;;;;;9.77;3.35;;;7.20;87.70;;;;;;5036309;28;20038;-69
2020/12/02 05:07:14;;;;;;;9.93;3.42;;;7.40;88.00;;;;;;5036124;28;20052;-69
2020/12/02 05:10:00;;;;;;;9.65;3.10;;;7.30;88.10;;;;;;4997077;28;20088;-69
2020/12/02 05:12:34;;;;;;;8.10;3.05;;;7.70;88.60;;;;;;4997077;28;20050;-69
2020/12/02 05:15:27;;;;;;;5.78;2.83;;;7.30;88.00;;;;;;4997435;28;20041;-69
2020/12/02 05:18:20;;;;;;;3.90;2.35;;;7.60;87.70;;;;;;4997313;28;20080;-69
2020/12/02 05:21:20;;;;;;;9.88;2.42;;;7.20;87.80;;;;;;4996638;28;20042;-69
2020/12/02 05:24:18;;;;;;;7.88;2.67;;;7.70;87.70;;;;;;4990000;28;20516;-69
2020/12/02 05:26:49;;;;;;;9.45;2.60;;;7.10;87.40;;;;;;4996985;28;20040;-69
2020/12/02 05:29:32;;;;;;;9.05;2.78;;;7.70;88.20;;;;;;4997327;28;20038;-69
2020/12/02 05:32:06;;;;;;;8.32;2.55;;;7.40;87.50;;;;;;4997165;28;20073;-69
2020/12/02 05:34:34;;;;;;;4.55;2.22;;;7.10;88.00;;;;;;4996042;28;20034;-69
2020/12/02 05:37:04;;;;;;;7.32;2.10;;;7.50;87.90;;;;;;4996769;28;20128;-69
2020/12/02 05:39:36;;;;;;;6.18;2.47;;;7.10;87.70;;;;;;4999121;28;20038;-69
2020/12/02 05:42:08;;;;;;;7.07;2.20;;;7.10;88.10;;;;;;5005252;28;20494;-69
2020/12/02 05:44:39;;;;;;;4.80;1.70;;;7.90;88.20;;;;;;4996925;28;20137;-69
2020/12/02 05:47:19;;;;;;;6.40;2.10;;;7.00;87.90;;;;;;5015318;28;20054;-69
2020/12/02 05:49:51;;;;;;;9.45;2.22;;;7.20;88.40;;;;;;5015676;28;20100;-69
2020/12/02 05:52:36;;;;;;;5.13;2.05;;;7.10;87.20;;;;;;5016108;28;20571;-69
2020/12/02 05:55:26;;;;;;;7.00;2.00;;;7.50;87.60;;;;;;5016301;28;20092;-69
2020/12/02 05:58:00;;;;;;;7.78;1.85;;;7.10;88.50;;;;;;5004049;28;20482;-69
2020/12/02 06:00:29;;;;;;;6.43;2.05;;;7.30;88.30;;;;;;5015844;28;20528;-69
2020/12/02 06:02:56;;;;;;;4.60;2.25;;;7.50;88.10;;;;;;5015955;28;20050;-69
2020/12/02 06:05:24;;;;;;;5.55;2.00;;;7.30;88.30;;;;;;5016054;28;20133;-69
2020/12/02 06:07:53;;;;;;;8.75;2.30;;;7.50;88.20;;;;;;5029753;28;20061;-69
2020/12/02 06:10:43;;;;;;;8.15;2.40;;;7.60;88.20;;;;;;5048946;28;20077;-69
2020/12/02 06:13:37;;;;;;;8.52;2.45;;;7.00;87.80;;;;;;5038519;28;20030;-69
2020/12/02 06:16:03;;;;;;;8.30;2.38;;;7.40;88.90;;;;;;5035742;28;20041;-70
2020/12/02 06:18:32;;;;;;;8.55;2.08;;;7.10;88.50;;;;;;5035941;28;20039;-69
2020/12/02 06:20:59;;;;;;;10.13;2.30;;;7.20;88.30;;;;;;5035305;28;20038;-69
2020/12/02 06:23:46;;;;;;;8.52;2.00;;;6.70;87.80;;;;;;5035749;28;20049;-69
2020/12/02 06:26:12;;;;;;;5.72;1.95;;;7.20;87.60;;;;;;5034482;28;20041;-69
2020/12/02 06:28:37;;;;;;;8.48;2.00;;;7.40;88.70;;;;;;5053188;28;20064;-70
2020/12/02 06:31:22;;;;;;;5.95;2.15;;;7.20;88.10;;;;;;5054325;28;20076;-70
2020/12/02 06:33:49;;;;;;;8.57;2.30;;;7.10;87.60;;;;;;5055330;28;20037;-70
2020/12/02 06:36:33;;;;;;;8.55;2.30;;;7.30;88.60;;;;;;5054752;28;20150;-70
2020/12/02 06:39:11;;;;;;;8.30;2.20;;;6.90;88.10;;;;;;5054698;28;20067;-69
2020/12/02 06:41:40;;;;;;;5.85;2.33;;;7.30;88.70;;;;;;5051778;28;20241;-69
2020/12/02 06:44:11;;;;;;;7.13;2.17;;;6.70;87.90;;;;;;5053251;28;20510;-69
2020/12/02 06:47:18;;;;;;;8.93;2.78;;;7.30;88.90;;;;;;5052563;28;20037;-71
2020/12/02 06:49:44;;;;;;;8.13;2.85;;;6.90;88.00;;;;;;5049511;28;20551;-71
2020/12/02 06:52:32;;;;;;;7.82;3.40;;;7.10;88.50;;;;;;5052446;28;20051;-70
2020/12/02 06:55:10;;;;;;;9.60;3.83;;;7.20;88.90;;;;;;5052057;28;20037;-69
2020/12/02 06:57:37;;;;;;;8.65;3.72;;;7.60;89.10;;;;;;5053508;28;20068;-70
2020/12/02 07:00:07;;;;;;;5.53;3.47;;;7.20;88.50;;;;;;5053281;28;20110;-70
2020/12/02 07:02:33;;;;;;;8.18;3.40;;;7.10;88.90;;;;;;5052884;28;20045;-70
2020/12/02 07:05:08;;;;;;;11.88;4.45;;;7.30;88.30;;;;;;5052764;28;20043;-69
2020/12/02 07:07:33;;;;;;;11.07;4.50;;;7.40;87.90;;;;;;5051309;28;20045;-70
2020/12/02 07:09:59;;;;;;;11.93;3.95;;;6.80;88.70;;;;;;5053677;28;20186;-70
2020/12/02 07:12:29;;;;;;;6.90;3.65;;;7.00;88.70;;;;;;5053352;28;20044;-71
2020/12/02 07:15:00;;;;;;;7.95;3.88;;;7.10;89.20;;;;;;5053589;28;20048;-70
2020/12/02 07:17:26;;;;;;;10.82;4.35;;;7.30;88.90;;;;;;5053606;28;20658;-71
2020/12/02 07:19:53;;;;;;;9.50;3.67;;;6.90;88.40;;;;;;5052780;28;20037;-71
2020/12/02 07:22:27;;;;;;;8.90;3.60;;;7.10;89.00;;;;;;5053293;28;20037;-70
2020/12/02 07:24:59;;;;;;;10.73;4.20;;;6.50;87.70;;;;;;5051112;28;20041;-70
2020/12/02 07:27:25;;;;;;;7.40;3.78;;;6.80;88.70;;;;;;5051133;28;20075;-70
2020/12/02 07:30:04;;;;;;;9.35;4.20;;;6.80;88.70;;;;;;5052406;28;20041;-71
2020/12/02 07:32:30;;;;;;;12.50;6.22;;;7.10;88.00;;;;;;5053781;28;20512;-70
2020/12/02 07:35:17;;;;;;;11.05;5.88;;;6.90;88.30;;;;;;5053632;28;20420;-70
2020/12/02 07:37:44;;;;;;;14.82;6.30;;;7.50;89.40;;;;;;5054233;28;20504;-70
2020/12/02 07:40:36;;;;;;;13.82;6.47;;;7.20;88.40;;;;;;5053759;28;20045;-70
2020/12/02 07:43:06;;;;;;;12.07;5.80;;;6.90;88.80;;;;;;5053884;28;20045;-70
2020/12/02 07:45:34;;;;;;;11.23;5.65;;;6.90;88.20;;;;;;5053270;28;20384;-70
2020/12/02 07:48:08;;;;;;;10.07;4.63;;;7.20;88.30;;;;;;5053579;28;20052;-70
2020/12/02 07:50:43;;;;;;;8.85;4.82;;;7.20;88.50;;;;;;5050884;28;20037;-71
2020/12/02 07:53:43;;;;;;;12.23;5.15;;;7.40;88.50;;;;;;5051869;28;20496;-69
2020/12/02 07:56:19;;;;;;;17.63;8.70;;;7.60;87.90;;;;;;5033802;28;20059;-71
2020/12/02 07:58:46;;;;;;;24.48;10.70;;;8.10;88.50;;;;;;5047925;28;20067;-70
2020/12/02 08:01:31;;;;;;;16.23;8.40;;;8.00;87.50;;;;;;5046945;28;20504;-71
2020/12/02 08:04:11;;;;;;;;;;;7.80;87.60;;;;;;5052325;28;20036;-71
2020/12/02 08:06:48;;;;;;;13.43;5.88;;;7.80;88.20;;;;;;5041133;28;20195;-71
2020/12/02 08:09:14;;;;;;;12.98;6.45;;;7.90;87.90;;;;;;5052625;28;20056;-71
2020/12/02 08:11:51;;;;;;;14.05;5.30;;;8.70;87.40;;;;;;5052760;28;20032;-70
2020/12/02 08:14:25;;;;;;;12.25;5.35;;;8.00;87.80;;;;;;5053132;28;20040;-71
2020/12/02 08:16:55;;;;;;;13.52;5.40;;;8.40;86.60;;;;;;5052846;28;20068;-70
2020/12/02 08:19:33;;;;;;;11.50;5.38;;;9.80;86.20;;;;;;5052274;28;20531;-71
2020/12/02 08:21:59;;;;;;;8.80;4.43;;;11.00;85.40;;;;;;5051393;28;20048;-71
2020/12/02 08:24:44;;;;;;;11.48;4.72;;;11.50;83.30;;;;;;5051729;28;20045;-71
2020/12/02 08:27:13;;;;;;;9.48;4.15;;;11.30;82.90;;;;;;5050587;28;20037;-71
2020/12/02 08:29:46;;;;;;;5.18;3.67;;;11.00;82.60;;;;;;5050779;28;20094;-70
2020/12/02 08:32:32;;;;;;;10.65;6.10;;;11.20;82.60;;;;;;5051307;28;20548;-72
2020/12/02 08:35:16;;;;;;;16.75;10.55;;;11.40;82.20;;;;;;5051888;28;20049;-70
2020/12/02 08:37:42;;;;;;;10.75;6.43;;;12.00;81.90;;;;;;5049946;28;20037;-70
2020/12/02 08:40:22;;;;;;;9.00;4.35;;;11.50;81.30;;;;;;5050248;28;20051;-69
2020/12/02 08:42:48;;;;;;;7.82;4.00;;;10.90;81.70;;;;;;5051827;28;20041;-69
2020/12/02 08:45:21;;;;;;;7.07;4.00;;;10.50;81.30;;;;;;5051677;28;20118;-69
2020/12/02 08:47:57;;;;;;;7.35;3.78;;;10.30;81.80;;;;;;5052896;28;20506;-69
2020/12/02 08:50:31;;;;;;;11.18;4.78;;;9.70;82.10;;;;;;5052306;28;20197;-69
2020/12/02 08:52:59;;;;;;;9.50;4.97;;;10.00;82.40;;;;;;5052228;28;20524;-69
2020/12/02 08:55:25;;;;;;;11.07;4.45;;;10.10;83.10;;;;;;5052270;28;20048;-69
2020/12/02 08:57:52;;;;;;;5.82;3.92;;;9.80;82.90;;;;;;5052656;28;20052;-68
2020/12/02 09:00:21;;;;;;;8.27;3.72;;;9.70;83.10;;;;;;5052237;28;20076;-68
2020/12/02 09:02:48;;;;;;;10.85;3.67;;;9.50;83.30;;;;;;5049270;28;20603;-69
2020/12/02 09:05:15;;;;;;;9.63;3.22;;;9.80;83.70;;;;;;5050580;28;20059;-69
2020/12/02 09:07:41;;;;;;;9.80;3.97;;;9.40;83.60;;;;;;5052133;28;20056;-69
2020/12/02 09:10:07;;;;;;;6.30;3.47;;;9.70;83.70;;;;;;5054270;28;20045;-69
2020/12/02 09:12:34;;;;;;;9.38;4.13;;;9.60;84.30;;;;;;5055354;28;20496;-69
2020/12/02 09:15:00;;;;;;;7.68;4.25;;;9.70;84.50;;;;;;5055328;28;20072;-69
2020/12/02 09:17:26;;;;;;;9.63;4.60;;;10.00;84.10;;;;;;5055134;28;20500;-69
2020/12/02 09:19:52;;;;;;;9.95;4.63;;;10.00;84.50;;;;;;5055573;28;20098;-69
2020/12/02 09:22:19;;;;;;;10.38;4.40;;;9.90;84.00;;;;;;5055952;28;20044;-69
2020/12/02 09:24:46;;;;;;;8.18;4.20;;;9.90;84.30;;;;;;5055445;28;20037;-69
2020/12/02 09:27:12;;;;;;;10.57;4.55;;;9.90;84.50;;;;;;5055702;28;20041;-69
2020/12/02 09:29:38;;;;;;;9.85;5.35;;;9.40;83.60;;;;;;5055095;28;20086;-68
2020/12/02 09:32:04;;;;;;;9.10;4.15;;;9.70;83.80;;;;;;5054774;28;20041;-68
2020/12/02 09:34:30;;;;;;;8.13;3.90;;;9.70;83.30;;;;;;5054359;28;20565;-69
2020/12/02 09:36:56;;;;;;;10.85;3.13;;;10.40;84.00;;;;;;5054606;28;20493;-69
2020/12/02 09:39:22;;;;;;;8.23;3.17;;;9.60;83.50;;;;;;5054983;28;20044;-69
2020/12/02 09:41:48;;;;;;;6.82;3.05;;;10.30;84.30;;;;;;5054443;28;20496;-70
2020/12/02 09:44:48;;;;;;;8.80;2.78;;;10.30;84.30;;;;;;5055111;28;20033;-69
2020/12/02 09:47:17;;;;;;;6.43;2.67;;;10.70;84.10;;;;;;5055271;28;20051;-69
2020/12/02 09:49:47;;;;;;;5.82;2.30;;;10.70;84.20;;;;;;5055243;28;20072;-69
2020/12/02 09:52:13;;;;;;;6.32;2.63;;;11.00;84.10;;;;;;5055151;28;20102;-69
2020/12/02 09:54:41;;;;;;;7.53;2.67;;;11.00;84.20;;;;;;5055079;28;20033;-68
2020/12/02 09:57:24;;;;;;;13.88;2.78;;;10.70;83.70;;;;;;5054890;28;20041;-69
2020/12/02 09:59:55;;;;;;;8.75;2.35;;;11.40;84.00;;;;;;5054795;28;20029;-69
2020/12/02 10:02:32;;;;;;;7.03;2.65;;;11.40;83.40;;;;;;5053787;28;20041;-68
2020/12/02 10:05:46;;;;;;;6.45;2.75;;;11.70;83.70;;;;;;5054540;28;20055;-69
2020/12/02 10:08:24;;;;;;;8.00;2.63;;;11.70;83.50;;;;;;5054755;28;20068;-69
2020/12/02 10:10:57;;;;;;;9.43;3.90;;;10.90;82.70;;;;;;5054931;28;20122;-69
2020/12/02 10:13:52;;;;;;;9.27;4.15;;;11.30;83.60;;;;;;5054854;28;20041;-68
2020/12/02 10:16:17;;;;;;;11.85;4.63;;;10.90;83.50;;;;;;5053345;28;20052;-68
2020/12/02 10:19:22;;;;;;;8.52;4.22;;;11.10;83.50;;;;;;5055087;28;20112;-69
2020/12/02 10:22:09;;;;;;;8.95;3.88;;;11.10;84.30;;;;;;5032828;28;20045;-69
2020/12/02 10:24:44;;;;;;;8.32;3.88;;;10.70;83.00;;;;;;5054920;28;20041;-68
2020/12/02 10:27:21;;;;;;;;;;;11.20;83.00;;;;;;5055456;28;20162;-68
2020/12/02 10:29:47;;;;;;;11.55;3.10;;;11.00;84.60;;;;;;5054694;28;20453;-69
2020/12/02 10:32:32;;;;;;;6.78;2.92;;;11.20;83.40;;;;;;5054930;28;20033;-69
2020/12/02 10:34:58;;;;;;;5.80;3.35;;;10.90;82.20;;;;;;5054903;28;20040;-67
2020/12/02 10:37:35;;;;;;;5.43;3.70;;;11.10;83.20;;;;;;5052447;28;20423;-68
2020/12/02 10:40:01;;;;;;;9.77;5.22;;;11.20;82.30;;;;;;5049681;28;20041;-68
2020/12/02 10:42:36;;;;;;;10.77;5.05;;;11.20;83.30;;;;;;5053285;28;20037;-68
2020/12/02 10:45:22;;;;;;;8.45;5.45;;;11.60;83.00;;;;;;5053356;28;20511;-67
2020/12/02 10:48:14;;;;;;;10.75;5.13;;;11.50;84.40;;;;;;5054094;28;20094;-68
2020/12/02 10:50:41;;;;;;;11.27;4.90;;;11.70;82.80;;;;;;5054400;28;20091;-67
2020/12/02 10:53:14;;;;;;;15.60;6.40;;;11.70;83.50;;;;;;5054662;28;20040;-67
2020/12/02 10:55:40;;;;;;;18.48;9.10;;;11.70;83.80;;;;;;5054215;28;20119;-69
2020/12/02 10:58:13;;;;;;;11.63;6.57;;;11.80;83.00;;;;;;5054063;28;20052;-68
2020/12/02 11:00:40;;;;;;;12.90;4.80;;;11.80;83.80;;;;;;5054357;28;20041;-68
2020/12/02 11:03:13;;;;;;;10.50;6.07;;;11.80;83.40;;;;;;5054305;28;20037;-69
2020/12/02 11:05:40;;;;;;;10.98;4.32;;;11.80;82.70;;;;;;5052752;28;20380;-68
2020/12/02 11:08:31;;;;;;;9.68;4.32;;;12.00;83.60;;;;;;5053905;28;20057;-68
2020/12/02 11:11:05;;;;;;;19.90;11.80;;;12.00;84.00;;;;;;5054168;28;20041;-68
2020/12/02 11:13:51;;;;;;;14.38;6.53;;;11.70;83.10;;;;;;5053528;28;20041;-68
2020/12/02 11:16:34;;;;;;;8.48;3.67;;;11.80;83.90;;;;;;5054017;28;20090;-68
2020/12/02 11:19:26;;;;;;;10.75;4.07;;;11.70;83.30;;;;;;5052947;28;20044;-68
2020/12/02 11:22:18;;;;;;;11.68;5.38;;;11.80;84.20;;;;;;5049608;28;20083;-68
2020/12/02 11:24:53;;;;;;;9.18;4.40;;;12.00;83.50;;;;;;5053832;28;20086;-68
2020/12/02 11:27:19;;;;;;;6.18;3.42;;;11.50;84.50;;;;;;5053400;28;20032;-68
2020/12/02 11:29:49;;;;;;;9.02;3.78;;;11.40;83.80;;;;;;5053280;28;20554;-67
2020/12/02 11:32:49;;;;;;;7.30;3.00;;;11.60;84.40;;;;;;5052492;28;20037;-68
2020/12/02 11:35:22;;;;;;;8.80;3.63;;;11.90;84.40;;;;;;5053279;28;20120;-68
2020/12/02 11:38:12;;;;;;;9.73;4.40;;;11.30;84.40;;;;;;5053567;28;20041;-67
2020/12/02 11:41:02;;;;;;;8.73;3.53;;;11.30;84.10;;;;;;5053720;28;20113;-67
2020/12/02 11:43:37;;;;;;;6.50;3.35;;;11.50;84.20;;;;;;5053469;28;20033;-68
2020/12/02 11:46:04;;;;;;;8.77;3.22;;;11.50;84.20;;;;;;5053381;28;20142;-67
2020/12/02 11:48:36;;;;;;;9.43;4.05;;;11.30;83.70;;;;;;5053541;28;20037;-67
2020/12/02 11:51:17;;;;;;;9.60;4.80;;;11.40;83.10;;;;;;5053214;28;20511;-68
2020/12/02 11:53:48;;;;;;;10.20;5.22;;;12.20;84.80;;;;;;5052402;28;20047;-67
2020/12/02 11:56:37;;;;;;;13.85;5.80;;;11.60;84.20;;;;;;5052341;28;20037;-67
2020/12/02 11:59:08;;;;;;;11.07;5.63;;;11.60;83.30;;;;;;5052867;28;20041;-67
2020/12/02 12:01:52;;;;;;;9.52;4.90;;;11.70;83.80;;;;;;5052306;28;20037;-66
2020/12/02 12:04:23;;;;;;;11.48;5.35;;;11.60;84.10;;;;;;5053007;28;20040;-66
2020/12/02 12:06:53;;;;;;;7.82;4.93;;;11.90;82.20;;;;;;5052050;28;20428;-66
2020/12/02 12:09:54;;;;;;;12.43;4.82;;;11.60;83.70;;;;;;5052679;28;20052;-67
2020/12/02 12:13:01;;;;;;;10.60;5.35;;;11.50;83.40;;;;;;5052964;28;20083;-66
2020/12/02 12:15:53;;;;;;;11.75;5.78;;;11.90;83.70;;;;;;5052118;28;20083;-66
2020/12/02 12:18:52;;;;;;;7.85;4.72;;;11.80;83.20;;;;;;5053185;28;20055;-67
2020/12/02 12:21:24;;;;;;;8.23;4.75;;;12.00;83.40;;;;;;5041640;28;20094;-66
2020/12/02 12:24:03;;;;;;;10.32;5.05;;;12.10;84.20;;;;;;5052962;28;20037;-66
2020/12/02 12:26:52;;;;;;;8.52;4.15;;;11.90;84.50;;;;;;5052834;28;20116;-67
2020/12/02 12:29:18;;;;;;;9.32;3.45;;;12.00;83.40;;;;;;5052780;28;20048;-66
2020/12/02 12:31:59;;;;;;;8.20;3.80;;;12.10;83.50;;;;;;5047523;28;20079;-66
2020/12/02 12:34:49;;;;;;;6.78;2.50;;;11.90;83.00;;;;;;5051362;28;20048;-67
2020/12/02 12:37:44;;;;;;;8.70;3.67;;;12.40;83.20;;;;;;5053041;28;20087;-68
2020/12/02 12:40:21;;;;;;;6.25;2.60;;;12.00;84.00;;;;;;5052589;28;20044;-68
2020/12/02 12:42:53;;;;;;;11.32;6.50;;;12.20;82.50;;;;;;5052412;28;20033;-68
2020/12/02 12:45:25;;;;;;;6.93;2.40;;;12.30;82.50;;;;;;5056889;28;20033;-68
2020/12/02 12:47:56;;;;;;;10.82;4.20;;;12.60;82.50;;;;;;5056316;28;20041;-67
2020/12/02 12:50:22;;;;;;;10.93;4.38;;;12.70;82.10;;;;;;5055990;28;20178;-69
2020/12/02 12:52:51;;;;;;;14.05;6.57;;;12.70;82.00;;;;;;5056693;28;20040;-68
2020/12/02 12:55:18;;;;;;;21.60;10.07;;;12.70;82.10;;;;;;5056479;28;20056;-68
2020/12/02 12:57:50;;;;;;;12.60;5.18;;;12.70;81.90;;;;;;5056139;28;20037;-69
2020/12/02 13:00:18;;;;;;;16.65;6.50;;;12.60;81.80;;;;;;5038633;28;20630;-68
2020/12/02 13:02:44;;;;;;;13.18;5.18;;;12.50;81.40;;;;;;5056078;28;20047;-68
2020/12/02 13:05:13;;;;;;;9.00;4.32;;;12.40;81.30;;;;;;5055881;28;20041;-68
2020/12/02 13:07:50;;;;;;;10.23;4.72;;;12.60;81.60;;;;;;5054350;28;20061;-68
2020/12/02 13:10:38;;;;;;;10.85;5.00;;;12.40;81.70;;;;;;5055024;28;20141;-68
2020/12/02 13:13:19;;;;;;;10.15;5.43;;;12.30;81.10;;;;;;5050688;28;20048;-68
2020/12/02 13:16:10;;;;;;;10.07;5.35;;;12.00;80.30;;;;;;5052081;28;20029;-68
2020/12/02 13:18:42;;;;;;;9.70;3.90;;;12.30;81.10;;;;;;5055728;28;20036;-68
2020/12/02 13:21:54;;;;;;;8.32;3.40;;;12.50;80.20;;;;;;5055923;28;20443;-69
2020/12/02 13:24:43;;;;;;;6.68;2.92;;;12.60;81.70;;;;;;4974371;28;20130;-68